createdAt,value
2023-03-22T00:00:44.524Z,991.12
2023-03-22T00:01:44.448Z,991.11
2023-03-22T00:02:44.564Z,990.98
2023-03-22T00:03:44.501Z,991.06
2023-03-22T00:04:44.612Z,991.10
2023-03-22T00:05:44.435Z,991.01
2023-03-22T00:06:44.460Z,991.05
2023-03-22T00:07:44.466Z,991.06
2023-03-22T00:08:44.395Z,991.05
2023-03-22T00:09:44.451Z,991.10
2023-03-22T00:10:44.390Z,991.05
2023-03-22T00:11:44.518Z,991.08
2023-03-22T00:12:44.387Z,991.05
2023-03-22T00:13:44.385Z,990.99
2023-03-22T00:14:44.416Z,990.99
2023-03-22T00:15:44.390Z,990.97
2023-03-22T00:16:44.370Z,990.97
2023-03-22T00:17:44.360Z,990.97
2023-03-22T00:18:44.388Z,991.03
2023-03-22T00:19:44.330Z,990.98
2023-03-22T00:20:44.333Z,990.99
2023-03-22T00:21:44.315Z,990.94
2023-03-22T00:22:44.298Z,990.95
2023-03-22T00:23:44.323Z,991.00
2023-03-22T00:24:44.265Z,990.94
2023-03-22T00:25:45.060Z,990.95
2023-03-22T00:26:44.236Z,990.91
2023-03-22T00:27:44.271Z,990.89
2023-03-22T00:28:44.212Z,990.93
2023-03-22T00:29:44.252Z,990.85
2023-03-22T00:30:44.213Z,990.88
2023-03-22T00:31:44.201Z,990.86
2023-03-22T00:32:44.225Z,990.80
2023-03-22T00:33:44.231Z,990.87
2023-03-22T00:34:44.253Z,990.79
2023-03-22T00:35:44.165Z,990.79
2023-03-22T00:36:44.164Z,990.73
2023-03-22T00:37:44.177Z,990.72
2023-03-22T00:38:44.726Z,990.78
2023-03-22T00:39:45.140Z,990.79
2023-03-22T00:40:44.139Z,990.84
2023-03-22T00:41:44.128Z,990.77
2023-03-22T00:42:44.133Z,990.78
2023-03-22T00:43:44.093Z,990.81
2023-03-22T00:44:44.064Z,990.82
2023-03-22T00:45:44.132Z,990.87
2023-03-22T00:46:44.095Z,990.91
2023-03-22T00:47:44.108Z,990.88
2023-03-22T00:48:44.083Z,990.85
2023-03-22T00:49:44.014Z,990.92
2023-03-22T00:50:44.034Z,990.92
2023-03-22T00:51:44.004Z,990.85
2023-03-22T00:52:43.972Z,990.86
2023-03-22T00:53:44.081Z,990.84
2023-03-22T00:54:44.005Z,990.86
2023-03-22T00:55:43.982Z,990.83
2023-03-22T00:56:43.946Z,990.78
2023-03-22T00:57:43.939Z,990.79
2023-03-22T00:58:43.929Z,990.80
2023-03-22T00:59:43.971Z,990.80
2023-03-22T01:00:44.049Z,990.75
2023-03-22T01:01:43.909Z,990.80
2023-03-22T01:02:43.956Z,990.83
2023-03-22T01:03:44.036Z,990.82
2023-03-22T01:04:43.913Z,990.82
2023-03-22T01:05:43.922Z,990.74
2023-03-22T01:06:43.914Z,990.74
2023-03-22T01:07:43.942Z,990.69
2023-03-22T01:08:43.872Z,990.71
2023-03-22T01:09:43.842Z,990.71
2023-03-22T01:10:43.920Z,990.67
2023-03-22T01:11:43.820Z,990.73
2023-03-22T01:12:43.816Z,990.70
2023-03-22T01:13:43.821Z,990.68
2023-03-22T01:14:43.845Z,990.71
2023-03-22T01:15:43.763Z,990.71
2023-03-22T01:16:43.824Z,990.64
2023-03-22T01:17:43.766Z,990.58
2023-03-22T01:18:43.741Z,990.68
2023-03-22T01:19:43.739Z,990.65
2023-03-22T01:20:43.688Z,990.68
2023-03-22T01:21:43.740Z,990.67
2023-03-22T01:22:43.706Z,990.67
2023-03-22T01:23:43.698Z,990.59
2023-03-22T01:24:43.694Z,990.59
2023-03-22T01:25:43.715Z,990.58
2023-03-22T01:26:43.698Z,990.59
2023-03-22T01:27:43.685Z,990.59
2023-03-22T01:28:43.671Z,990.54
2023-03-22T01:29:43.623Z,990.53
2023-03-22T01:30:43.701Z,990.51
2023-03-22T01:31:43.621Z,990.53
2023-03-22T01:32:43.587Z,990.53
2023-03-22T01:33:43.582Z,990.50
2023-03-22T01:34:43.594Z,990.46
2023-03-22T01:35:43.657Z,990.51
2023-03-22T01:36:43.571Z,990.49
2023-03-22T01:37:43.607Z,990.51
2023-03-22T01:38:43.506Z,990.52
2023-03-22T01:39:43.544Z,990.50
2023-03-22T01:40:43.539Z,990.47
2023-03-22T01:41:43.538Z,990.49
2023-03-22T01:42:44.055Z,990.49
2023-03-22T01:43:43.514Z,990.44
2023-03-22T01:44:43.488Z,990.51
2023-03-22T01:45:43.512Z,990.42
2023-03-22T01:46:43.460Z,990.39
2023-03-22T01:47:43.509Z,990.43
2023-03-22T01:48:43.464Z,990.49
2023-03-22T01:49:44.070Z,990.41
2023-03-22T01:50:43.498Z,990.40
2023-03-22T01:51:43.941Z,990.42
2023-03-22T01:52:44.395Z,990.37
2023-03-22T01:53:43.383Z,990.40
2023-03-22T01:54:43.400Z,990.42
2023-03-22T01:55:43.409Z,990.46
2023-03-22T01:56:43.425Z,990.46
2023-03-22T01:57:43.360Z,990.41
2023-03-22T01:58:43.358Z,990.41
2023-03-22T01:59:43.351Z,990.41
2023-03-22T02:00:43.335Z,990.39
2023-03-22T02:01:43.399Z,990.39
2023-03-22T02:02:43.319Z,990.36
2023-03-22T02:03:44.120Z,990.32
2023-03-22T02:04:43.267Z,990.40
2023-03-22T02:05:43.388Z,990.38
2023-03-22T02:06:44.286Z,990.37
2023-03-22T02:07:43.276Z,990.35
2023-03-22T02:08:43.280Z,990.39
2023-03-22T02:09:43.250Z,990.34
2023-03-22T02:10:43.348Z,990.35
2023-03-22T02:11:43.241Z,990.36
2023-03-22T02:12:43.211Z,990.33
2023-03-22T02:13:43.209Z,990.39
2023-03-22T02:14:43.176Z,990.33
2023-03-22T02:15:43.230Z,990.24
2023-03-22T02:16:43.168Z,990.31
2023-03-22T02:17:44.063Z,990.31
2023-03-22T02:18:43.202Z,990.36
2023-03-22T02:19:43.180Z,990.30
2023-03-22T02:20:43.176Z,990.25
2023-03-22T02:21:43.133Z,990.26
2023-03-22T02:22:43.098Z,990.31
2023-03-22T02:23:43.113Z,990.26
2023-03-22T02:24:43.995Z,990.27
2023-03-22T02:25:44.103Z,990.25
2023-03-22T02:26:43.197Z,990.26
2023-03-22T02:27:43.042Z,990.20
2023-03-22T02:28:43.065Z,990.19
2023-03-22T02:29:43.087Z,990.23
2023-03-22T02:30:43.049Z,990.21
2023-03-22T02:31:43.059Z,990.28
2023-03-22T02:32:43.014Z,990.23
2023-03-22T02:33:43.240Z,990.25
2023-03-22T02:34:42.989Z,990.29
2023-03-22T02:35:43.044Z,990.27
2023-03-22T02:36:42.957Z,990.27
2023-03-22T02:37:42.986Z,990.22
2023-03-22T02:38:42.976Z,990.24
2023-03-22T02:39:42.937Z,990.26
2023-03-22T02:40:43.136Z,990.26
2023-03-22T02:41:42.930Z,990.20
2023-03-22T02:42:42.893Z,990.19
2023-03-22T02:43:42.915Z,990.22
2023-03-22T02:44:42.933Z,990.23
2023-03-22T02:45:42.979Z,990.16
2023-03-22T02:46:42.956Z,990.18
2023-03-22T02:47:42.960Z,990.20
2023-03-22T02:48:42.836Z,990.27
2023-03-22T02:49:42.840Z,990.20
2023-03-22T02:50:42.846Z,990.17
2023-03-22T02:51:42.822Z,990.11
2023-03-22T02:52:42.869Z,990.17
2023-03-22T02:53:42.809Z,990.10
2023-03-22T02:54:44.586Z,990.18
2023-03-22T02:55:43.814Z,990.18
2023-03-22T02:56:42.798Z,990.13
2023-03-22T02:57:42.787Z,990.12
2023-03-22T02:58:42.779Z,990.13
2023-03-22T02:59:42.713Z,990.15
2023-03-22T03:00:43.011Z,990.13
2023-03-22T03:01:42.811Z,990.16
2023-03-22T03:02:42.690Z,990.07
2023-03-22T03:03:42.702Z,990.11
2023-03-22T03:04:42.711Z,990.11
2023-03-22T03:05:42.711Z,990.09
2023-03-22T03:06:42.648Z,990.07
2023-03-22T03:07:42.668Z,990.08
2023-03-22T03:08:42.693Z,990.08
2023-03-22T03:09:42.650Z,990.06
2023-03-22T03:10:42.656Z,990.11
2023-03-22T03:11:42.622Z,990.00
2023-03-22T03:12:42.640Z,990.07
2023-03-22T03:13:42.589Z,990.04
2023-03-22T03:14:42.595Z,990.07
2023-03-22T03:15:42.609Z,989.97
2023-03-22T03:16:42.600Z,989.96
2023-03-22T03:17:42.558Z,989.99
2023-03-22T03:18:42.589Z,989.91
2023-03-22T03:19:42.587Z,989.93
2023-03-22T03:20:42.582Z,989.99
2023-03-22T03:21:42.523Z,989.90
2023-03-22T03:22:42.514Z,989.93
2023-03-22T03:23:42.515Z,989.87
2023-03-22T03:24:42.508Z,989.87
2023-03-22T03:25:42.545Z,989.91
2023-03-22T03:26:42.477Z,989.83
2023-03-22T03:27:42.494Z,989.86
2023-03-22T03:28:42.441Z,989.87
2023-03-22T03:29:42.444Z,989.82
2023-03-22T03:30:42.450Z,989.83
2023-03-22T03:31:42.563Z,989.82
2023-03-22T03:32:42.438Z,989.85
2023-03-22T03:33:42.381Z,989.79
2023-03-22T03:34:42.374Z,989.74
2023-03-22T03:35:42.428Z,989.73
2023-03-22T03:36:42.922Z,989.75
2023-03-22T03:37:42.353Z,989.66
2023-03-22T03:38:42.364Z,989.76
2023-03-22T03:39:42.333Z,989.70
2023-03-22T03:40:42.354Z,989.72
2023-03-22T03:41:42.359Z,989.69
2023-03-22T03:42:42.323Z,989.76
2023-03-22T03:43:42.408Z,989.70
2023-03-22T03:44:42.245Z,989.71
2023-03-22T03:45:42.379Z,989.66
2023-03-22T03:46:42.265Z,989.68
2023-03-22T03:47:42.308Z,989.65
2023-03-22T03:48:42.272Z,989.67
2023-03-22T03:49:42.265Z,989.67
2023-03-22T03:50:42.447Z,989.66
2023-03-22T03:51:42.212Z,989.70
2023-03-22T03:52:43.273Z,989.67
2023-03-22T03:53:43.230Z,989.70
2023-03-22T03:54:42.176Z,989.68
2023-03-22T03:55:42.230Z,989.66
2023-03-22T03:56:42.172Z,989.67
2023-03-22T03:57:42.179Z,989.65
2023-03-22T03:58:42.171Z,989.67
2023-03-22T03:59:42.182Z,989.69
2023-03-22T04:00:42.268Z,989.64
2023-03-22T04:01:42.123Z,989.69
2023-03-22T04:02:42.194Z,989.71
2023-03-22T04:03:42.129Z,989.72
2023-03-22T04:04:42.185Z,989.72
2023-03-22T04:05:42.093Z,989.69
2023-03-22T04:06:42.072Z,989.78
2023-03-22T04:07:42.109Z,989.70
2023-03-22T04:08:42.049Z,989.77
2023-03-22T04:09:42.140Z,989.74
2023-03-22T04:10:42.081Z,989.80
2023-03-22T04:11:42.026Z,989.79
2023-03-22T04:12:42.035Z,989.73
2023-03-22T04:13:42.026Z,989.76
2023-03-22T04:14:42.119Z,989.78
2023-03-22T04:15:41.991Z,989.76
2023-03-22T04:16:42.054Z,989.85
2023-03-22T04:17:42.014Z,989.68
2023-03-22T04:18:41.979Z,989.74
2023-03-22T04:19:41.972Z,989.75
2023-03-22T04:20:42.165Z,989.77
2023-03-22T04:21:41.982Z,989.71
2023-03-22T04:22:41.894Z,989.71
2023-03-22T04:23:41.928Z,989.67
2023-03-22T04:24:41.899Z,989.67
2023-03-22T04:25:41.951Z,989.68
2023-03-22T04:26:41.886Z,989.65
2023-03-22T04:27:41.861Z,989.65
2023-03-22T04:28:42.060Z,989.57
2023-03-22T04:29:41.864Z,989.60
2023-03-22T04:30:42.288Z,989.54
2023-03-22T04:31:41.835Z,989.59
2023-03-22T04:32:41.850Z,989.54
2023-03-22T04:33:41.803Z,989.59
2023-03-22T04:34:41.804Z,989.51
2023-03-22T04:35:42.669Z,989.52
2023-03-22T04:36:41.829Z,989.52
2023-03-22T04:37:41.826Z,989.54
2023-03-22T04:38:41.813Z,989.52
2023-03-22T04:39:41.766Z,989.56
2023-03-22T04:40:42.216Z,989.53
2023-03-22T04:41:41.760Z,989.52
2023-03-22T04:42:41.848Z,989.56
2023-03-22T04:43:41.691Z,989.58
2023-03-22T04:44:41.770Z,989.58
2023-03-22T04:45:41.827Z,989.55
2023-03-22T04:46:41.729Z,989.50
2023-03-22T04:47:41.743Z,989.52
2023-03-22T04:48:41.705Z,989.56
2023-03-22T04:49:41.706Z,989.51
2023-03-22T04:50:42.018Z,989.63
2023-03-22T04:51:41.703Z,989.54
2023-03-22T04:52:41.652Z,989.60
2023-03-22T04:53:41.651Z,989.56
2023-03-22T04:54:41.626Z,989.59
2023-03-22T04:55:41.642Z,989.62
2023-03-22T04:56:41.621Z,989.62
2023-03-22T04:57:41.611Z,989.63
2023-03-22T04:58:41.581Z,989.60
2023-03-22T04:59:41.584Z,989.59
2023-03-22T05:00:41.883Z,989.60
2023-03-22T05:01:41.622Z,989.60
2023-03-22T05:02:41.800Z,989.52
2023-03-22T05:03:41.513Z,989.55
2023-03-22T05:04:41.488Z,989.54
2023-03-22T05:05:41.492Z,989.52
2023-03-22T05:06:41.529Z,989.52
2023-03-22T05:07:41.502Z,989.55
2023-03-22T05:08:41.469Z,989.58
2023-03-22T05:09:41.448Z,989.51
2023-03-22T05:10:41.961Z,989.52
2023-03-22T05:11:41.484Z,989.56
2023-03-22T05:12:41.427Z,989.60
2023-03-22T05:13:41.427Z,989.55
2023-03-22T05:14:41.470Z,989.55
2023-03-22T05:15:41.452Z,989.52
2023-03-22T05:16:41.451Z,989.56
2023-03-22T05:17:41.431Z,989.59
2023-03-22T05:18:41.363Z,989.58
2023-03-22T05:19:41.394Z,989.58
2023-03-22T05:20:41.556Z,989.52
2023-03-22T05:21:41.400Z,989.58
2023-03-22T05:22:41.476Z,989.67
2023-03-22T05:23:41.318Z,989.61
2023-03-22T05:24:41.304Z,989.69
2023-03-22T05:25:41.272Z,989.67
2023-03-22T05:26:41.325Z,989.61
2023-03-22T05:27:41.289Z,989.56
2023-03-22T05:28:41.271Z,989.55
2023-03-22T05:29:41.290Z,989.53
2023-03-22T05:30:41.579Z,989.53
2023-03-22T05:31:41.307Z,989.54
2023-03-22T05:32:41.276Z,989.58
2023-03-22T05:33:41.249Z,989.57
2023-03-22T05:34:41.236Z,989.55
2023-03-22T05:35:41.244Z,989.55
2023-03-22T05:36:41.567Z,989.55
2023-03-22T05:37:41.240Z,989.53
2023-03-22T05:38:41.209Z,989.61
2023-03-22T05:39:41.169Z,989.57
2023-03-22T05:40:41.497Z,989.52
2023-03-22T05:41:41.154Z,989.48
2023-03-22T05:42:41.134Z,989.56
2023-03-22T05:43:41.209Z,989.53
2023-03-22T05:44:41.103Z,989.56
2023-03-22T05:45:41.193Z,989.56
2023-03-22T05:46:41.205Z,989.51
2023-03-22T05:47:41.116Z,989.50
2023-03-22T05:48:41.103Z,989.51
2023-03-22T05:49:41.071Z,989.52
2023-03-22T05:50:42.059Z,989.45
2023-03-22T05:51:41.090Z,989.48
2023-03-22T05:52:41.123Z,989.54
2023-03-22T05:53:41.066Z,989.46
2023-03-22T05:54:41.071Z,989.48
2023-03-22T05:55:41.030Z,989.48
2023-03-22T05:56:41.034Z,989.44
2023-03-22T05:57:41.542Z,989.48
2023-03-22T05:58:41.005Z,989.46
2023-03-22T05:59:40.945Z,989.52
2023-03-22T06:00:41.293Z,989.50
2023-03-22T06:01:41.006Z,989.52
2023-03-22T06:02:41.013Z,989.55
2023-03-22T06:03:40.952Z,989.51
2023-03-22T06:04:40.955Z,989.52
2023-03-22T06:05:40.900Z,989.57
2023-03-22T06:06:41.134Z,989.45
2023-03-22T06:07:40.873Z,989.48
2023-03-22T06:08:40.903Z,989.46
2023-03-22T06:09:40.868Z,989.51
2023-03-22T06:10:41.112Z,989.40
2023-03-22T06:11:40.858Z,989.44
2023-03-22T06:12:40.834Z,989.44
2023-03-22T06:13:40.834Z,989.43
2023-03-22T06:14:41.846Z,989.44
2023-03-22T06:15:40.932Z,989.41
2023-03-22T06:16:40.848Z,989.36
2023-03-22T06:17:40.805Z,989.36
2023-03-22T06:18:40.782Z,989.34
2023-03-22T06:32:36.001Z,989.38
2023-03-22T06:33:36.000Z,989.43
2023-03-22T06:34:36.078Z,989.40
2023-03-22T06:35:36.070Z,989.43
2023-03-22T06:36:35.983Z,989.44
2023-03-22T06:37:35.959Z,989.40
2023-03-22T06:38:35.951Z,989.41
2023-03-22T06:39:37.244Z,989.38
2023-03-22T06:40:37.296Z,989.45
2023-03-22T06:41:37.160Z,989.43
2023-03-22T06:42:37.172Z,989.37
2023-03-22T06:43:37.194Z,989.45
2023-03-22T06:44:37.207Z,989.42
2023-03-22T06:45:37.039Z,989.42
2023-03-22T06:46:37.014Z,989.45
2023-03-22T06:47:37.027Z,989.41
2023-03-22T06:48:37.022Z,989.37
2023-03-22T06:49:37.018Z,989.41
2023-03-22T06:50:37.202Z,989.37
2023-03-22T06:51:36.965Z,989.43
2023-03-22T06:52:37.045Z,989.43
2023-03-22T06:53:38.017Z,989.43
2023-03-22T06:54:36.985Z,989.45
2023-03-22T06:55:36.928Z,989.48
2023-03-22T06:56:36.950Z,989.43
2023-03-22T06:57:36.909Z,989.43
2023-03-22T06:58:36.919Z,989.40
2023-03-22T06:59:37.020Z,989.36
2023-03-22T07:00:36.942Z,989.37
2023-03-22T07:01:36.962Z,989.37
2023-03-22T07:02:36.857Z,989.38
2023-03-22T07:03:36.843Z,989.37
2023-03-22T07:04:36.858Z,989.39
2023-03-22T07:05:36.839Z,989.37
2023-03-22T07:06:36.829Z,989.42
2023-03-22T07:07:36.921Z,989.39
2023-03-22T07:08:36.824Z,989.47
2023-03-22T07:09:36.856Z,989.40
2023-03-22T07:10:36.836Z,989.42
2023-03-22T07:11:36.809Z,989.41
2023-03-22T07:12:36.755Z,989.47
2023-03-22T07:13:36.749Z,989.43
2023-03-22T07:14:36.869Z,989.40
2023-03-22T07:15:36.769Z,989.37
2023-03-22T07:16:36.877Z,989.34
2023-03-22T07:17:36.734Z,989.31
2023-03-22T07:18:36.772Z,989.39
2023-03-22T07:19:36.844Z,989.32
2023-03-22T07:20:40.768Z,989.23
2023-03-22T07:21:36.770Z,989.25
2023-03-22T07:22:36.684Z,989.27
2023-03-22T07:23:36.720Z,989.24
2023-03-22T07:24:44.623Z,989.20
2023-03-22T07:25:38.908Z,989.24
2023-03-22T07:26:36.866Z,989.18
2023-03-22T07:27:36.950Z,989.24
2023-03-22T07:28:36.877Z,989.17
2023-03-22T07:29:36.638Z,989.17
2023-03-22T07:30:36.586Z,989.19
2023-03-22T07:31:36.620Z,989.16
2023-03-22T07:32:36.841Z,989.22
2023-03-22T07:33:37.630Z,989.18
2023-03-22T07:34:36.778Z,989.19
2023-03-22T07:35:36.533Z,989.15
2023-03-22T07:36:36.516Z,989.13
2023-03-22T07:37:36.551Z,989.17
2023-03-22T07:38:36.532Z,989.15
2023-03-22T07:41:53.116Z,989.12
2023-03-22T07:42:54.837Z,989.08
2023-03-22T07:43:58.412Z,989.09
2023-03-22T07:44:54.294Z,989.07
2023-03-22T07:45:54.279Z,989.13
2023-03-22T07:49:11.479Z,989.16
2023-03-22T07:50:11.701Z,989.13
2023-03-22T07:51:11.346Z,989.09
2023-03-22T07:52:11.452Z,989.09
2023-03-22T07:53:11.393Z,989.08
2023-03-22T07:56:30.208Z,989.04
2023-03-22T07:57:30.303Z,989.00
2023-03-22T08:00:21.286Z,989.05
2023-03-22T08:01:21.289Z,989.01
2023-03-22T08:02:21.485Z,989.07
2023-03-22T08:03:21.351Z,989.06
2023-03-22T08:04:21.390Z,989.03
2023-03-22T08:05:21.338Z,988.97
2023-03-22T08:06:21.210Z,989.01
2023-03-22T08:07:21.174Z,988.96
2023-03-22T08:08:21.165Z,989.04
2023-03-22T08:09:21.225Z,988.97
2023-03-22T08:10:21.450Z,989.04
2023-03-22T08:11:21.124Z,989.02
2023-03-22T08:12:21.176Z,988.99
2023-03-22T08:13:21.149Z,988.95
2023-03-22T08:14:30.766Z,988.90
2023-03-22T08:15:24.359Z,988.90
2023-03-22T08:16:22.492Z,988.79
2023-03-22T08:17:22.346Z,988.78
2023-03-22T08:18:22.233Z,988.84
2023-03-22T08:19:22.232Z,988.82
2023-03-22T08:20:22.368Z,988.84
2023-03-22T08:21:22.250Z,988.84
2023-03-22T08:22:22.263Z,988.92
2023-03-22T08:23:28.901Z,988.89
2023-03-22T08:24:24.258Z,988.90
2023-03-22T08:25:22.310Z,988.85
2023-03-22T08:26:22.452Z,988.85
2023-03-22T08:27:22.179Z,988.78
2023-03-22T08:28:22.182Z,988.84
2023-03-22T08:29:22.145Z,988.77
2023-03-22T08:30:22.157Z,988.88
2023-03-22T08:31:22.135Z,988.81
2023-03-22T08:32:22.174Z,988.73
2023-03-22T08:33:22.215Z,988.70
2023-03-22T08:34:22.194Z,988.69
2023-03-22T08:35:22.110Z,988.66
2023-03-22T08:36:22.069Z,988.66
2023-03-22T08:37:22.199Z,988.71
2023-03-22T08:38:22.068Z,988.71
2023-03-22T08:39:22.043Z,988.74
2023-03-22T08:40:22.040Z,988.67
2023-03-22T08:41:22.143Z,988.73
2023-03-22T08:42:22.033Z,988.66
2023-03-22T08:43:22.073Z,988.71
2023-03-22T08:44:22.063Z,988.73
2023-03-22T08:45:22.037Z,988.73
2023-03-22T08:46:21.975Z,988.68
2023-03-22T08:47:21.976Z,988.67
2023-03-22T08:48:21.984Z,988.70
2023-03-22T08:49:21.996Z,988.63
2023-03-22T08:50:21.978Z,988.66
2023-03-22T08:51:21.907Z,988.63
2023-03-22T08:52:22.049Z,988.67
2023-03-22T08:53:21.961Z,988.65
2023-03-22T08:54:21.911Z,988.70
2023-03-22T08:55:21.922Z,988.68
2023-03-22T08:56:21.903Z,988.64
2023-03-22T08:57:22.033Z,988.62
2023-03-22T08:58:22.001Z,988.65
2023-03-22T08:59:21.879Z,988.64
2023-03-22T09:00:21.878Z,988.63
2023-03-22T09:01:22.047Z,988.66
2023-03-22T09:02:22.003Z,988.63
2023-03-22T09:03:21.882Z,988.57
2023-03-22T09:04:22.882Z,988.59
2023-03-22T09:05:21.806Z,988.53
2023-03-22T09:06:21.796Z,988.54
2023-03-22T09:07:21.818Z,988.53
2023-03-22T09:08:21.826Z,988.57
2023-03-22T09:09:22.010Z,988.51
2023-03-22T09:10:21.718Z,988.46
2023-03-22T09:11:21.746Z,988.47
2023-03-22T09:12:21.725Z,988.32
2023-03-22T09:13:21.748Z,988.38
2023-03-22T09:14:21.750Z,988.36
2023-03-22T09:15:21.718Z,988.45
2023-03-22T09:16:21.781Z,988.44
2023-03-22T09:17:22.595Z,988.44
2023-03-22T09:18:22.658Z,988.36
2023-03-22T09:19:21.908Z,988.29
2023-03-22T09:20:21.717Z,988.35
2023-03-22T09:21:21.721Z,988.32
2023-03-22T09:22:21.653Z,988.32
2023-03-22T09:23:21.743Z,988.30
2023-03-22T09:24:21.706Z,988.27
2023-03-22T09:25:21.688Z,988.24
2023-03-22T09:26:21.583Z,988.33
2023-03-22T09:27:21.669Z,988.23
2023-03-22T09:28:21.650Z,988.23
2023-03-22T09:29:22.258Z,988.18
2023-03-22T09:30:21.544Z,988.18
2023-03-22T09:31:21.571Z,988.17
2023-03-22T09:32:21.580Z,988.17
2023-03-22T09:33:21.836Z,988.15
2023-03-22T09:34:21.512Z,988.17
2023-03-22T09:35:21.558Z,988.23
2023-03-22T09:36:21.480Z,988.16
2023-03-22T09:37:21.782Z,988.14
2023-03-22T09:38:21.733Z,988.12
2023-03-22T09:39:21.999Z,988.16
2023-03-22T09:40:21.538Z,988.17
2023-03-22T09:41:21.428Z,988.14
2023-03-22T09:42:21.475Z,988.11
2023-03-22T09:43:21.452Z,988.11
2023-03-22T09:44:21.636Z,988.09
2023-03-22T09:45:21.387Z,988.11
2023-03-22T09:46:22.392Z,988.11
2023-03-22T09:47:21.378Z,988.03
2023-03-22T09:48:21.427Z,988.05
2023-03-22T09:49:21.363Z,988.05
2023-03-22T09:50:21.365Z,988.00
2023-03-22T09:51:21.332Z,988.04
2023-03-22T09:52:21.402Z,988.05
2023-03-22T09:53:21.430Z,987.97
2023-03-22T09:54:21.594Z,988.03
2023-03-22T09:55:21.276Z,988.01
2023-03-22T09:56:21.313Z,987.98
2023-03-22T09:57:21.343Z,988.03
2023-03-22T09:58:21.334Z,987.94
2023-03-22T09:59:21.282Z,987.95
2023-03-22T10:00:21.513Z,987.83
2023-03-22T10:01:21.476Z,987.86
2023-03-22T10:02:21.479Z,987.82
2023-03-22T10:03:21.855Z,987.81
2023-03-22T10:04:21.250Z,987.83
2023-03-22T10:05:21.462Z,987.79
2023-03-22T10:06:21.254Z,987.76
2023-03-22T10:07:21.161Z,987.69
2023-03-22T10:08:21.279Z,987.75
2023-03-22T10:09:21.381Z,987.74
2023-03-22T10:10:22.067Z,987.80
2023-03-22T10:11:21.268Z,987.78
2023-03-22T10:12:21.252Z,987.59
2023-03-22T10:13:21.206Z,987.65
2023-03-22T10:14:21.135Z,987.67
2023-03-22T10:15:21.120Z,987.82
2023-03-22T10:16:21.174Z,987.74
2023-03-22T10:17:21.371Z,987.76
2023-03-22T10:18:21.148Z,987.65
2023-03-22T10:19:21.245Z,987.71
2023-03-22T10:20:21.054Z,987.75
2023-03-22T10:21:21.049Z,987.66
2023-03-22T10:22:21.055Z,987.70
2023-03-22T10:23:21.058Z,987.64
2023-03-22T10:24:21.872Z,987.68
2023-03-22T10:25:21.149Z,987.65
2023-03-22T10:26:20.994Z,987.64
2023-03-22T10:27:21.021Z,987.68
2023-03-22T10:28:21.003Z,987.72
2023-03-22T10:29:21.233Z,987.73
2023-03-22T10:30:21.047Z,987.83
2023-03-22T10:31:21.306Z,987.61
2023-03-22T10:32:20.929Z,987.66
2023-03-22T10:33:20.922Z,987.71
2023-03-22T10:34:21.017Z,987.70
2023-03-22T10:35:20.916Z,987.74
2023-03-22T10:36:21.049Z,987.64
2023-03-22T10:37:20.902Z,987.66
2023-03-22T10:38:20.918Z,987.62
2023-03-22T10:39:20.914Z,987.69
2023-03-22T10:40:20.851Z,987.69
2023-03-22T10:41:20.960Z,987.71
2023-03-22T10:42:20.845Z,987.76
2023-03-22T10:43:20.870Z,987.75
2023-03-22T10:44:20.900Z,987.78
2023-03-22T10:45:21.278Z,987.87
2023-03-22T10:46:20.843Z,987.72
2023-03-22T10:47:20.852Z,987.75
2023-03-22T10:48:20.915Z,987.80
2023-03-22T10:49:20.778Z,987.75
2023-03-22T10:50:20.742Z,987.76
2023-03-22T10:51:20.831Z,987.82
2023-03-22T10:52:20.799Z,987.69
2023-03-22T10:53:20.843Z,987.71
2023-03-22T10:54:20.734Z,987.84
2023-03-22T10:55:21.504Z,987.83
2023-03-22T10:56:20.705Z,987.76
2023-03-22T10:57:20.791Z,987.64
2023-03-22T10:58:20.776Z,987.73
2023-03-22T10:59:20.679Z,987.61
2023-03-22T11:00:21.020Z,987.69
2023-03-22T11:01:20.732Z,987.62
2023-03-22T11:02:20.727Z,987.75
2023-03-22T11:03:20.643Z,987.68
2023-03-22T11:04:20.644Z,987.74
2023-03-22T11:05:20.606Z,987.72
2023-03-22T11:06:20.629Z,987.68
2023-03-22T11:07:20.653Z,987.70
2023-03-22T11:08:20.642Z,987.69
2023-03-22T11:09:21.128Z,987.74
2023-03-22T11:10:20.585Z,987.76
2023-03-22T11:11:20.767Z,987.72
2023-03-22T11:12:20.578Z,987.62
2023-03-22T11:13:20.764Z,987.64
2023-03-22T11:14:20.691Z,987.53
2023-03-22T11:15:20.483Z,987.54
2023-03-22T11:16:20.538Z,987.58
2023-03-22T11:17:20.672Z,987.58
2023-03-22T11:18:20.694Z,987.59
2023-03-22T11:19:20.632Z,987.53
2023-03-22T11:20:21.366Z,987.49
2023-03-22T11:21:20.525Z,987.71
2023-03-22T11:22:20.445Z,987.51
2023-03-22T11:23:20.503Z,987.44
2023-03-22T11:24:20.409Z,987.48
2023-03-22T11:25:21.039Z,987.49
2023-03-22T11:26:20.535Z,987.40
2023-03-22T11:27:20.515Z,987.56
2023-03-22T11:28:20.662Z,987.44
2023-03-22T11:29:20.471Z,987.39
2023-03-22T11:30:20.444Z,987.39
2023-03-22T11:31:20.471Z,987.48
2023-03-22T11:32:20.453Z,987.43
2023-03-22T11:33:20.415Z,987.37
2023-03-22T11:34:20.362Z,987.36
2023-03-22T11:35:20.460Z,987.22
2023-03-22T11:36:20.338Z,987.29
2023-03-22T11:37:20.345Z,987.31
2023-03-22T11:38:20.339Z,987.31
2023-03-22T11:39:20.583Z,987.30
2023-03-22T11:40:20.317Z,987.29
2023-03-22T11:41:20.263Z,987.28
2023-03-22T11:42:20.246Z,987.22
2023-03-22T11:43:20.306Z,987.21
2023-03-22T11:44:20.244Z,987.18
2023-03-22T11:45:20.353Z,987.18
2023-03-22T11:46:20.285Z,987.21
2023-03-22T11:51:24.540Z,987.05
2023-03-22T11:52:24.668Z,987.09
2023-03-22T11:53:24.478Z,987.07
2023-03-22T11:55:53.050Z,987.00
2023-03-22T11:56:52.650Z,987.03
2023-03-22T11:57:52.614Z,986.98
2023-03-22T11:58:52.346Z,986.95
2023-03-22T11:59:52.179Z,986.96
2023-03-22T12:00:52.350Z,986.94
2023-03-22T12:01:52.414Z,986.98
2023-03-22T12:02:52.384Z,986.94
2023-03-22T12:06:37.217Z,986.91
2023-03-22T12:07:37.288Z,986.90
2023-03-22T12:08:38.726Z,986.95
2023-03-22T12:09:38.978Z,986.90
2023-03-22T12:10:38.310Z,987.05
2023-03-22T12:11:38.248Z,987.00
2023-03-22T12:12:38.389Z,987.04
2023-03-22T12:13:38.418Z,987.08
2023-03-22T12:14:39.141Z,987.07
2023-03-22T12:15:38.439Z,987.24
2023-03-22T12:16:38.305Z,987.09
2023-03-22T12:17:38.332Z,987.18
2023-03-22T12:18:38.242Z,987.24
2023-03-22T12:19:38.330Z,987.19
2023-03-22T12:20:38.510Z,987.17
2023-03-22T12:21:38.298Z,987.19
2023-03-22T12:22:38.186Z,987.22
2023-03-22T12:23:38.260Z,987.18
2023-03-22T12:24:38.194Z,987.29
2023-03-22T12:25:38.291Z,987.26
2023-03-22T12:26:38.320Z,987.17
2023-03-22T12:27:38.192Z,987.29
2023-03-22T12:28:38.241Z,987.23
2023-03-22T12:29:38.227Z,987.17
2023-03-22T12:30:38.172Z,987.20
2023-03-22T12:31:38.213Z,987.15
2023-03-22T12:32:38.160Z,987.13
2023-03-22T12:33:38.154Z,987.13
2023-03-22T12:34:38.055Z,987.03
2023-03-22T12:35:38.293Z,987.00
2023-03-22T12:36:38.977Z,986.99
2023-03-22T12:37:38.159Z,987.09
2023-03-22T12:38:38.072Z,987.15
2023-03-22T12:39:38.080Z,987.09
2023-03-22T12:40:38.260Z,987.13
2023-03-22T12:41:38.019Z,987.11
2023-03-22T12:42:47.610Z,986.99
2023-03-22T12:43:39.119Z,987.03
2023-03-22T12:44:37.982Z,987.01
2023-03-22T12:45:38.295Z,987.10
2023-03-22T12:46:38.075Z,987.05
2023-03-22T12:47:38.103Z,987.07
2023-03-22T12:48:39.529Z,987.08
2023-03-22T12:49:38.137Z,987.00
2023-03-22T12:50:38.776Z,987.04
2023-03-22T12:51:37.854Z,987.08
2023-03-22T12:52:45.308Z,987.02
2023-03-22T12:53:38.890Z,987.07
2023-03-22T12:54:37.895Z,987.04
2023-03-22T12:55:37.949Z,987.01
2023-03-22T12:56:38.897Z,987.01
2023-03-22T12:57:38.330Z,986.99
2023-03-22T12:58:37.885Z,987.01